Mc Connellsburg, Pennsylvania
Current Conditions -  °F | °C
As of 7:03 AM on Tuesday 27 Jan 2015 (Local Time) from KHGR Reporting Station
Light Snow Light Snow  
Wind Chill: 14°   Ceiling: 3800
Heat Index: 25°   Visibility: 5mi
Dew Point: 20°   Wind: 13mph
Humidity: 81%   Direction: 330°NNW
Pressure: 29.79"   Gusts: NA
Location:  39.973°N, 77.9661°W
Report Text: KHGR 271203Z 33011KT 5SM -SN BKN038 OVC055 M04/M07 A2979 RMK AO2 P0000 T10391067
Loading
Personal Weather Stations






























Interactive Weather Map New forecast layout! Learn more

10-Day Weather Forecast

Advertisements
Track Severe Weather on mobile